Accueil
METAR-TAF:

METAR-TAF

Aéroports :

Passo Rolle, Italie

latitude: 46-18N, longitude: 011-47E, altitude: 2004 m

Observation

Le bulletin a été fait il y a 1 heure et 19 minutes, à 18:55 UTC
Vent 7 kt de est/sud-est
Température 9°C
Humidité 87%
Pression 1015 hPa
Visibilité: 0600 m
brouillard

METAR: LIVR 221855Z 12007KT 0600 FG VV/// 09/07 Q1015 RMK MON INVIS VIS MIN 0600

Heure: 22:14 (20:14 UTC)


TAF: absent

Observations et prévisions météorologiques de plus de 4000 aéroports (messages METAR et TAF).

Les stations disponibles sont représentées par des disques jaunes et rouges sur la carte.

Passer la souris dessus pour voir le nom de la station.

Cliquer dessus pour voir les observations et prévisions météorologiques.

Pour changer de carte: cliquez sur les boutons verts avec une croix noire pour zoomer, sur le bouton vert avec un tiret pour effectuer un zoom arrière, ou sur les flèches vertes pour les cartes adjacentes.


METAR-TAF: